sensor_id;sensor_type;location;lat;lon;timestamp;temperature;humidity
22194;DHT22;11262;50.308;9.270;2022-09-03T00:00:14;16.80;92.40
22194;DHT22;11262;50.308;9.270;2022-09-03T00:02:48;16.80;92.60
22194;DHT22;11262;50.308;9.270;2022-09-03T00:05:20;16.70;92.70
22194;DHT22;11262;50.308;9.270;2022-09-03T00:07:59;16.70;92.90
22194;DHT22;11262;50.308;9.270;2022-09-03T00:10:38;16.60;93.00
22194;DHT22;11262;50.308;9.270;2022-09-03T00:13:13;16.60;93.20
22194;DHT22;11262;50.308;9.270;2022-09-03T00:15:39;16.50;93.40
22194;DHT22;11262;50.308;9.270;2022-09-03T00:18:08;16.50;93.50
22194;DHT22;11262;50.308;9.270;2022-09-03T00:20:40;16.60;93.60
22194;DHT22;11262;50.308;9.270;2022-09-03T00:23:11;16.60;93.70
22194;DHT22;11262;50.308;9.270;2022-09-03T00:25:44;16.50;93.70
22194;DHT22;11262;50.308;9.270;2022-09-03T00:28:36;16.50;93.90
22194;DHT22;11262;50.308;9.270;2022-09-03T00:33:49;16.50;94.00
22194;DHT22;11262;50.308;9.270;2022-09-03T00:36:21;16.50;94.10
22194;DHT22;11262;50.308;9.270;2022-09-03T00:38:48;16.50;94.30
22194;DHT22;11262;50.308;9.270;2022-09-03T00:41:32;16.40;94.40
22194;DHT22;11262;50.308;9.270;2022-09-03T01:00:29;16.50;94.80
22194;DHT22;11262;50.308;9.270;2022-09-03T01:06:00;16.40;95.00
22194;DHT22;11262;50.308;9.270;2022-09-03T01:17:04;16.40;95.30
22194;DHT22;11262;50.308;9.270;2022-09-03T01:19:39;16.40;95.40
22194;DHT22;11262;50.308;9.270;2022-09-03T01:30:39;16.30;96.10
22194;DHT22;11262;50.308;9.270;2022-09-03T01:33:24;16.30;96.10
22194;DHT22;11262;50.308;9.270;2022-09-03T01:36:09;16.30;96.30
22194;DHT22;11262;50.308;9.270;2022-09-03T01:38:46;16.30;96.70
22194;DHT22;11262;50.308;9.270;2022-09-03T01:49:43;16.20;96.90
22194;DHT22;11262;50.308;9.270;2022-09-03T01:52:23;16.10;97.10
22194;DHT22;11262;50.308;9.270;2022-09-03T01:55:12;16.10;97.20
22194;DHT22;11262;50.308;9.270;2022-09-03T02:00:18;16.10;97.40
22194;DHT22;11262;50.308;9.270;2022-09-03T02:02:47;16.10;97.50
22194;DHT22;11262;50.308;9.270;2022-09-03T02:05:24;16.10;97.50
22194;DHT22;11262;50.308;9.270;2022-09-03T02:10:30;16.10;97.70
22194;DHT22;11262;50.308;9.270;2022-09-03T02:13:07;16.10;97.80
22194;DHT22;11262;50.308;9.270;2022-09-03T02:15:36;16.10;98.00
22194;DHT22;11262;50.308;9.270;2022-09-03T02:18:06;16.10;98.00
22194;DHT22;11262;50.308;9.270;2022-09-03T02:20:35;16.10;98.20
22194;DHT22;11262;50.308;9.270;2022-09-03T02:23:02;16.10;98.20
22194;DHT22;11262;50.308;9.270;2022-09-03T02:25:51;16.00;98.30
22194;DHT22;11262;50.308;9.270;2022-09-03T02:28:19;16.00;98.60
22194;DHT22;11262;50.308;9.270;2022-09-03T02:30:46;15.90;98.70
22194;DHT22;11262;50.308;9.270;2022-09-03T02:33:12;15.90;98.90
22194;DHT22;11262;50.308;9.270;2022-09-03T02:35:39;15.90;99.00
22194;DHT22;11262;50.308;9.270;2022-09-03T02:38:10;15.90;99.20
22194;DHT22;11262;50.308;9.270;2022-09-03T02:40:36;15.90;99.30
22194;DHT22;11262;50.308;9.270;2022-09-03T02:43:02;15.80;99.40
22194;DHT22;11262;50.308;9.270;2022-09-03T02:45:29;15.90;99.50
22194;DHT22;11262;50.308;9.270;2022-09-03T02:48:00;15.90;99.60
22194;DHT22;11262;50.308;9.270;2022-09-03T02:50:26;15.80;99.70
22194;DHT22;11262;50.308;9.270;2022-09-03T02:52:51;15.80;99.80
22194;DHT22;11262;50.308;9.270;2022-09-03T02:55:18;15.80;99.80
22194;DHT22;11262;50.308;9.270;2022-09-03T02:57:44;15.80;99.90
22194;DHT22;11262;50.308;9.270;2022-09-03T03:00:12;15.80;99.90
22194;DHT22;11262;50.308;9.270;2022-09-03T03:02:37;15.80;99.90
22194;DHT22;11262;50.308;9.270;2022-09-03T03:05:04;15.70;99.90
22194;DHT22;11262;50.308;9.270;2022-09-03T03:07:35;15.70;99.90
22194;DHT22;11262;50.308;9.270;2022-09-03T03:10:01;15.70;99.90
22194;DHT22;11262;50.308;9.270;2022-09-03T03:12:27;15.70;99.90
22194;DHT22;11262;50.308;9.270;2022-09-03T03:14:54;15.70;99.90
22194;DHT22;11262;50.308;9.270;2022-09-03T03:17:19;15.60;99.90
22194;DHT22;11262;50.308;9.270;2022-09-03T03:19:45;15.60;99.90
22194;DHT22;11262;50.308;9.270;2022-09-03T03:22:10;15.50;99.90
22194;DHT22;11262;50.308;9.270;2022-09-03T03:24:36;15.50;99.90
22194;DHT22;11262;50.308;9.270;2022-09-03T03:27:02;15.50;99.90
22194;DHT22;11262;50.308;9.270;2022-09-03T03:29:30;15.50;99.90
22194;DHT22;11262;50.308;9.270;2022-09-03T03:31:56;15.50;99.90
22194;DHT22;11262;50.308;9.270;2022-09-03T03:34:22;15.50;99.90
22194;DHT22;11262;50.308;9.270;2022-09-03T03:36:48;15.50;99.90
22194;DHT22;11262;50.308;9.270;2022-09-03T03:39:13;15.50;99.90
22194;DHT22;11262;50.308;9.270;2022-09-03T03:41:39;15.60;99.90
22194;DHT22;11262;50.308;9.270;2022-09-03T03:44:06;15.50;99.90
22194;DHT22;11262;50.308;9.270;2022-09-03T03:46:37;15.50;99.90
22194;DHT22;11262;50.308;9.270;2022-09-03T03:49:03;15.50;99.90
22194;DHT22;11262;50.308;9.270;2022-09-03T03:51:31;15.50;99.90
22194;DHT22;11262;50.308;9.270;2022-09-03T03:53:57;15.50;99.90
22194;DHT22;11262;50.308;9.270;2022-09-03T03:56:24;15.40;99.90
22194;DHT22;11262;50.308;9.270;2022-09-03T03:58:51;15.40;99.90
22194;DHT22;11262;50.308;9.270;2022-09-03T04:01:23;15.40;99.90
22194;DHT22;11262;50.308;9.270;2022-09-03T04:03:49;15.40;99.90
22194;DHT22;11262;50.308;9.270;2022-09-03T04:06:17;15.40;99.90
22194;DHT22;11262;50.308;9.270;2022-09-03T04:08:44;15.40;99.90
22194;DHT22;11262;50.308;9.270;2022-09-03T04:11:16;15.40;99.90
22194;DHT22;11262;50.308;9.270;2022-09-03T04:13:43;15.40;99.90
22194;DHT22;11262;50.308;9.270;2022-09-03T04:16:21;15.30;99.90
22194;DHT22;11262;50.308;9.270;2022-09-03T04:18:47;15.30;99.90
22194;DHT22;11262;50.308;9.270;2022-09-03T04:21:19;15.40;99.90
22194;DHT22;11262;50.308;9.270;2022-09-03T04:23:47;15.30;99.90
22194;DHT22;11262;50.308;9.270;2022-09-03T04:26:15;15.40;99.90
22194;DHT22;11262;50.308;9.270;2022-09-03T04:28:41;15.40;99.90
22194;DHT22;11262;50.308;9.270;2022-09-03T04:31:09;15.40;99.90
22194;DHT22;11262;50.308;9.270;2022-09-03T04:33:36;15.40;99.90
22194;DHT22;11262;50.308;9.270;2022-09-03T04:36:07;15.40;99.90
22194;DHT22;11262;50.308;9.270;2022-09-03T04:38:35;15.40;99.90
22194;DHT22;11262;50.308;9.270;2022-09-03T04:41:01;15.40;99.90
22194;DHT22;11262;50.308;9.270;2022-09-03T04:43:28;15.40;99.90
22194;DHT22;11262;50.308;9.270;2022-09-03T04:45:58;15.40;99.90
22194;DHT22;11262;50.308;9.270;2022-09-03T04:48:25;15.40;99.90
22194;DHT22;11262;50.308;9.270;2022-09-03T04:50:51;15.40;99.90
22194;DHT22;11262;50.308;9.270;2022-09-03T04:53:16;15.40;99.90
22194;DHT22;11262;50.308;9.270;2022-09-03T04:55:42;15.40;99.90
22194;DHT22;11262;50.308;9.270;2022-09-03T04:58:08;15.50;99.90
22194;DHT22;11262;50.308;9.270;2022-09-03T05:00:35;15.50;99.90
22194;DHT22;11262;50.308;9.270;2022-09-03T05:03:01;15.50;99.90
22194;DHT22;11262;50.308;9.270;2022-09-03T05:05:29;15.50;99.90
22194;DHT22;11262;50.308;9.270;2022-09-03T05:07:59;15.50;99.90
22194;DHT22;11262;50.308;9.270;2022-09-03T05:10:26;15.60;99.90
22194;DHT22;11262;50.308;9.270;2022-09-03T05:13:03;15.60;99.90
22194;DHT22;11262;50.308;9.270;2022-09-03T05:15:30;15.70;99.90
22194;DHT22;11262;50.308;9.270;2022-09-03T05:17:59;15.70;99.90
22194;DHT22;11262;50.308;9.270;2022-09-03T05:20:30;15.70;99.90
22194;DHT22;11262;50.308;9.270;2022-09-03T05:23:00;15.70;99.90
22194;DHT22;11262;50.308;9.270;2022-09-03T05:25:27;15.80;99.90
22194;DHT22;11262;50.308;9.270;2022-09-03T05:27:52;15.80;99.90
22194;DHT22;11262;50.308;9.270;2022-09-03T05:30:19;15.80;99.90
22194;DHT22;11262;50.308;9.270;2022-09-03T05:32:47;15.90;99.90
22194;DHT22;11262;50.308;9.270;2022-09-03T05:35:13;15.90;99.90
22194;DHT22;11262;50.308;9.270;2022-09-03T05:37:38;15.90;99.90
22194;DHT22;11262;50.308;9.270;2022-09-03T05:40:05;15.90;99.90
22194;DHT22;11262;50.308;9.270;2022-09-03T05:42:30;16.00;99.90
22194;DHT22;11262;50.308;9.270;2022-09-03T05:44:59;16.00;99.90
22194;DHT22;11262;50.308;9.270;2022-09-03T05:47:25;16.00;99.90
22194;DHT22;11262;50.308;9.270;2022-09-03T05:49:50;16.00;99.90
22194;DHT22;11262;50.308;9.270;2022-09-03T05:52:16;16.00;99.90
22194;DHT22;11262;50.308;9.270;2022-09-03T05:54:43;16.00;99.90
22194;DHT22;11262;50.308;9.270;2022-09-03T05:57:09;16.10;99.90
22194;DHT22;11262;50.308;9.270;2022-09-03T05:59:34;16.00;99.90
22194;DHT22;11262;50.308;9.270;2022-09-03T06:02:00;16.10;99.90
22194;DHT22;11262;50.308;9.270;2022-09-03T06:04:25;16.10;99.90
22194;DHT22;11262;50.308;9.270;2022-09-03T06:06:51;16.10;99.90
22194;DHT22;11262;50.308;9.270;2022-09-03T06:09:19;16.10;99.90
22194;DHT22;11262;50.308;9.270;2022-09-03T06:11:46;16.10;99.90
22194;DHT22;11262;50.308;9.270;2022-09-03T06:14:14;16.10;99.90
22194;DHT22;11262;50.308;9.270;2022-09-03T06:16:45;16.20;99.90
22194;DHT22;11262;50.308;9.270;2022-09-03T06:19:14;16.20;99.90
22194;DHT22;11262;50.308;9.270;2022-09-03T06:21:41;16.30;99.90
22194;DHT22;11262;50.308;9.270;2022-09-03T06:24:18;16.40;99.90
22194;DHT22;11262;50.308;9.270;2022-09-03T06:26:44;16.40;99.90
22194;DHT22;11262;50.308;9.270;2022-09-03T06:29:11;16.50;99.90
22194;DHT22;11262;50.308;9.270;2022-09-03T06:31:37;16.60;99.90
22194;DHT22;11262;50.308;9.270;2022-09-03T06:34:04;16.60;99.90
22194;DHT22;11262;50.308;9.270;2022-09-03T06:36:30;16.60;99.90
22194;DHT22;11262;50.308;9.270;2022-09-03T06:38:57;16.70;99.90
22194;DHT22;11262;50.308;9.270;2022-09-03T06:41:27;16.70;99.90
22194;DHT22;11262;50.308;9.270;2022-09-03T06:43:58;16.70;99.90
22194;DHT22;11262;50.308;9.270;2022-09-03T06:46:26;16.80;99.90
22194;DHT22;11262;50.308;9.270;2022-09-03T06:48:52;16.80;99.90
22194;DHT22;11262;50.308;9.270;2022-09-03T06:51:27;16.70;99.90
22194;DHT22;11262;50.308;9.270;2022-09-03T06:53:58;16.80;99.90
22194;DHT22;11262;50.308;9.270;2022-09-03T06:56:24;16.80;99.90
22194;DHT22;11262;50.308;9.270;2022-09-03T06:58:54;16.70;99.90
22194;DHT22;11262;50.308;9.270;2022-09-03T07:01:28;16.70;99.90
22194;DHT22;11262;50.308;9.270;2022-09-03T07:03:57;16.70;99.90
22194;DHT22;11262;50.308;9.270;2022-09-03T07:06:25;16.70;99.90
22194;DHT22;11262;50.308;9.270;2022-09-03T07:08:52;16.70;99.90
22194;DHT22;11262;50.308;9.270;2022-09-03T07:11:20;16.80;99.90
22194;DHT22;11262;50.308;9.270;2022-09-03T07:13:49;16.80;99.90
22194;DHT22;11262;50.308;9.270;2022-09-03T07:16:17;16.80;99.90
22194;DHT22;11262;50.308;9.270;2022-09-03T07:18:43;16.80;99.90
22194;DHT22;11262;50.308;9.270;2022-09-03T07:21:15;16.90;99.90
22194;DHT22;11262;50.308;9.270;2022-09-03T07:23:41;16.80;99.90
22194;DHT22;11262;50.308;9.270;2022-09-03T07:26:16;16.90;99.90
22194;DHT22;11262;50.308;9.270;2022-09-03T07:28:43;16.90;99.90
22194;DHT22;11262;50.308;9.270;2022-09-03T07:31:24;16.90;99.90
22194;DHT22;11262;50.308;9.270;2022-09-03T07:33:53;16.90;99.90
22194;DHT22;11262;50.308;9.270;2022-09-03T07:36:20;16.90;99.90
22194;DHT22;11262;50.308;9.270;2022-09-03T07:38:46;16.90;99.90
22194;DHT22;11262;50.308;9.270;2022-09-03T07:41:13;16.90;99.90
22194;DHT22;11262;50.308;9.270;2022-09-03T07:43:42;17.00;99.90
22194;DHT22;11262;50.308;9.270;2022-09-03T07:46:18;17.00;99.90
22194;DHT22;11262;50.308;9.270;2022-09-03T07:48:47;17.00;99.90
22194;DHT22;11262;50.308;9.270;2022-09-03T07:51:13;17.10;99.90
22194;DHT22;11262;50.308;9.270;2022-09-03T07:53:39;17.00;99.90
22194;DHT22;11262;50.308;9.270;2022-09-03T07:56:07;17.10;99.90
22194;DHT22;11262;50.308;9.270;2022-09-03T07:58:34;17.00;99.90
22194;DHT22;11262;50.308;9.270;2022-09-03T08:01:08;17.00;99.90
22194;DHT22;11262;50.308;9.270;2022-09-03T08:03:35;17.00;99.90
22194;DHT22;11262;50.308;9.270;2022-09-03T08:06:02;17.10;99.90
22194;DHT22;11262;50.308;9.270;2022-09-03T08:08:28;17.10;99.90
22194;DHT22;11262;50.308;9.270;2022-09-03T08:10:54;17.10;99.90
22194;DHT22;11262;50.308;9.270;2022-09-03T08:13:19;17.10;99.90
22194;DHT22;11262;50.308;9.270;2022-09-03T08:15:55;17.10;99.90
22194;DHT22;11262;50.308;9.270;2022-09-03T08:18:21;17.10;99.90
22194;DHT22;11262;50.308;9.270;2022-09-03T08:20:47;17.10;99.90
22194;DHT22;11262;50.308;9.270;2022-09-03T08:23:13;17.10;99.90
22194;DHT22;11262;50.308;9.270;2022-09-03T08:25:39;17.20;99.90
22194;DHT22;11262;50.308;9.270;2022-09-03T08:28:04;17.10;99.90
22194;DHT22;11262;50.308;9.270;2022-09-03T08:30:30;17.00;99.90
22194;DHT22;11262;50.308;9.270;2022-09-03T08:32:56;16.90;99.90
22194;DHT22;11262;50.308;9.270;2022-09-03T08:35:21;16.80;99.90
22194;DHT22;11262;50.308;9.270;2022-09-03T08:37:48;16.70;99.90
22194;DHT22;11262;50.308;9.270;2022-09-03T08:40:16;16.70;99.90
22194;DHT22;11262;50.308;9.270;2022-09-03T08:43:02;16.70;99.90
22194;DHT22;11262;50.308;9.270;2022-09-03T08:45:34;16.60;99.90
22194;DHT22;11262;50.308;9.270;2022-09-03T08:48:11;16.70;99.90
22194;DHT22;11262;50.308;9.270;2022-09-03T08:50:42;16.70;99.90
22194;DHT22;11262;50.308;9.270;2022-09-03T08:56:20;16.70;99.90
22194;DHT22;11262;50.308;9.270;2022-09-03T08:58:46;16.70;99.90
22194;DHT22;11262;50.308;9.270;2022-09-03T09:09:34;17.00;99.90
22194;DHT22;11262;50.308;9.270;2022-09-03T09:14:55;17.20;99.90
22194;DHT22;11262;50.308;9.270;2022-09-03T09:20:34;17.60;99.90
22194;DHT22;11262;50.308;9.270;2022-09-03T09:23:09;17.90;99.90
22194;DHT22;11262;50.308;9.270;2022-09-03T09:25:49;18.40;99.90
22194;DHT22;11262;50.308;9.270;2022-09-03T09:28:21;18.90;99.90
22194;DHT22;11262;50.308;9.270;2022-09-03T09:30:48;19.00;99.90
22194;DHT22;11262;50.308;9.270;2022-09-03T09:33:15;19.10;99.90
22194;DHT22;11262;50.308;9.270;2022-09-03T09:35:42;19.10;99.90
22194;DHT22;11262;50.308;9.270;2022-09-03T09:38:09;19.00;99.90
22194;DHT22;11262;50.308;9.270;2022-09-03T09:40:40;18.90;99.90
22194;DHT22;11262;50.308;9.270;2022-09-03T09:45:40;18.80;99.90
22194;DHT22;11262;50.308;9.270;2022-09-03T09:51:11;18.70;99.90
22194;DHT22;11262;50.308;9.270;2022-09-03T09:53:38;18.70;99.90
22194;DHT22;11262;50.308;9.270;2022-09-03T09:56:04;18.70;99.90
22194;DHT22;11262;50.308;9.270;2022-09-03T09:58:32;18.70;99.90
22194;DHT22;11262;50.308;9.270;2022-09-03T10:01:13;18.80;99.90
22194;DHT22;11262;50.308;9.270;2022-09-03T10:06:22;19.00;99.90
22194;DHT22;11262;50.308;9.270;2022-09-03T10:09:12;19.10;99.90
22194;DHT22;11262;50.308;9.270;2022-09-03T10:11:42;19.30;99.90
22194;DHT22;11262;50.308;9.270;2022-09-03T10:14:16;19.50;99.90
22194;DHT22;11262;50.308;9.270;2022-09-03T10:16:49;19.80;99.90
22194;DHT22;11262;50.308;9.270;2022-09-03T10:19:18;19.90;99.90
22194;DHT22;11262;50.308;9.270;2022-09-03T10:24:57;20.30;99.90
22194;DHT22;11262;50.308;9.270;2022-09-03T10:27:23;20.40;99.90
22194;DHT22;11262;50.308;9.270;2022-09-03T10:29:50;20.50;99.90
22194;DHT22;11262;50.308;9.270;2022-09-03T10:38:02;20.40;99.90
22194;DHT22;11262;50.308;9.270;2022-09-03T10:46:16;20.70;99.30
22194;DHT22;11262;50.308;9.270;2022-09-03T10:52:00;20.90;99.00
22194;DHT22;11262;50.308;9.270;2022-09-03T11:00:15;21.30;98.40
22194;DHT22;11262;50.308;9.270;2022-09-03T11:05:39;21.00;98.50
22194;DHT22;11262;50.308;9.270;2022-09-03T11:08:37;21.10;98.20
22194;DHT22;11262;50.308;9.270;2022-09-03T11:11:33;21.00;98.70
22194;DHT22;11262;50.308;9.270;2022-09-03T11:14:10;21.00;98.40
22194;DHT22;11262;50.308;9.270;2022-09-03T11:16:57;21.10;98.70
22194;DHT22;11262;50.308;9.270;2022-09-03T11:19:34;20.80;98.20
22194;DHT22;11262;50.308;9.270;2022-09-03T11:22:03;20.70;98.70
22194;DHT22;11262;50.308;9.270;2022-09-03T11:24:30;20.60;99.20
22194;DHT22;11262;50.308;9.270;2022-09-03T11:27:25;20.50;99.10
22194;DHT22;11262;50.308;9.270;2022-09-03T11:30:01;20.20;99.40
22194;DHT22;11262;50.308;9.270;2022-09-03T11:32:48;20.00;99.90
22194;DHT22;11262;50.308;9.270;2022-09-03T11:40:56;20.10;99.90
22194;DHT22;11262;50.308;9.270;2022-09-03T11:43:29;20.30;99.90
22194;DHT22;11262;50.308;9.270;2022-09-03T11:48:47;20.10;99.90
22194;DHT22;11262;50.308;9.270;2022-09-03T11:51:33;20.00;99.90
22194;DHT22;11262;50.308;9.270;2022-09-03T11:54:03;20.20;99.90
22194;DHT22;11262;50.308;9.270;2022-09-03T11:56:31;20.40;99.90
22194;DHT22;11262;50.308;9.270;2022-09-03T11:59:16;20.50;99.90
22194;DHT22;11262;50.308;9.270;2022-09-03T12:01:48;20.40;99.90
22194;DHT22;11262;50.308;9.270;2022-09-03T12:04:18;20.50;99.90
22194;DHT22;11262;50.308;9.270;2022-09-03T12:09:52;20.70;99.90
22194;DHT22;11262;50.308;9.270;2022-09-03T12:17:49;20.90;99.90
22194;DHT22;11262;50.308;9.270;2022-09-03T12:20:36;20.80;99.90
22194;DHT22;11262;50.308;9.270;2022-09-03T12:23:02;21.10;99.70
22194;DHT22;11262;50.308;9.270;2022-09-03T12:25:28;21.30;99.50
22194;DHT22;11262;50.308;9.270;2022-09-03T12:27:54;21.40;99.50
22194;DHT22;11262;50.308;9.270;2022-09-03T12:30:23;21.60;98.70
22194;DHT22;11262;50.308;9.270;2022-09-03T12:32:49;21.70;98.30
22194;DHT22;11262;50.308;9.270;2022-09-03T12:35:22;21.80;97.70
22194;DHT22;11262;50.308;9.270;2022-09-03T12:37:51;22.20;97.90
22194;DHT22;11262;50.308;9.270;2022-09-03T12:40:18;22.70;96.30
22194;DHT22;11262;50.308;9.270;2022-09-03T12:42:45;23.00;94.90
22194;DHT22;11262;50.308;9.270;2022-09-03T12:45:11;23.30;94.30
22194;DHT22;11262;50.308;9.270;2022-09-03T12:47:41;23.40;93.50
22194;DHT22;11262;50.308;9.270;2022-09-03T12:50:12;24.20;93.20
22194;DHT22;11262;50.308;9.270;2022-09-03T12:58:30;25.90;87.80
22194;DHT22;11262;50.308;9.270;2022-09-03T13:01:18;26.30;84.90
22194;DHT22;11262;50.308;9.270;2022-09-03T13:04:13;26.50;84.30
22194;DHT22;11262;50.308;9.270;2022-09-03T13:07:03;26.60;83.30
22194;DHT22;11262;50.308;9.270;2022-09-03T13:09:33;27.00;81.10
22194;DHT22;11262;50.308;9.270;2022-09-03T13:12:00;26.90;80.50
22194;DHT22;11262;50.308;9.270;2022-09-03T13:14:41;26.90;80.20
22194;DHT22;11262;50.308;9.270;2022-09-03T13:17:51;26.70;78.90
22194;DHT22;11262;50.308;9.270;2022-09-03T13:20:39;26.90;80.40
22194;DHT22;11262;50.308;9.270;2022-09-03T13:23:22;27.10;78.40
22194;DHT22;11262;50.308;9.270;2022-09-03T13:26:26;27.60;78.10
22194;DHT22;11262;50.308;9.270;2022-09-03T13:31:49;27.60;75.80
22194;DHT22;11262;50.308;9.270;2022-09-03T13:34:38;26.80;76.80
22194;DHT22;11262;50.308;9.270;2022-09-03T13:39:58;26.20;81.00
22194;DHT22;11262;50.308;9.270;2022-09-03T13:43:00;26.20;80.80
22194;DHT22;11262;50.308;9.270;2022-09-03T13:46:07;26.40;81.40
22194;DHT22;11262;50.308;9.270;2022-09-03T13:48:43;27.30;78.40
22194;DHT22;11262;50.308;9.270;2022-09-03T13:51:50;27.40;77.30
22194;DHT22;11262;50.308;9.270;2022-09-03T13:54:35;26.90;75.80
22194;DHT22;11262;50.308;9.270;2022-09-03T13:57:21;26.70;77.20
22194;DHT22;11262;50.308;9.270;2022-09-03T13:59:51;27.00;77.90
22194;DHT22;11262;50.308;9.270;2022-09-03T14:19:18;26.60;77.40
22194;DHT22;11262;50.308;9.270;2022-09-03T14:22:00;26.40;77.30
22194;DHT22;11262;50.308;9.270;2022-09-03T14:24:55;26.30;78.20
22194;DHT22;11262;50.308;9.270;2022-09-03T14:27:27;26.40;77.70
22194;DHT22;11262;50.308;9.270;2022-09-03T14:29:58;26.50;77.50
22194;DHT22;11262;50.308;9.270;2022-09-03T14:32:31;26.40;77.10
22194;DHT22;11262;50.308;9.270;2022-09-03T14:40:32;25.30;80.60
22194;DHT22;11262;50.308;9.270;2022-09-03T14:59:26;24.90;85.00
22194;DHT22;11262;50.308;9.270;2022-09-03T15:02:39;24.80;85.20
22194;DHT22;11262;50.308;9.270;2022-09-03T15:05:26;24.80;85.50
22194;DHT22;11262;50.308;9.270;2022-09-03T15:11:01;24.80;86.10
22194;DHT22;11262;50.308;9.270;2022-09-03T15:13:34;24.70;86.40
22194;DHT22;11262;50.308;9.270;2022-09-03T15:24:56;24.30;89.70
22194;DHT22;11262;50.308;9.270;2022-09-03T15:30:14;24.20;89.90
22194;DHT22;11262;50.308;9.270;2022-09-03T15:36:33;24.20;90.30
22194;DHT22;11262;50.308;9.270;2022-09-03T15:38:43;24.20;90.50
22194;DHT22;11262;50.308;9.270;2022-09-03T15:41:50;24.20;90.20
22194;DHT22;11262;50.308;9.270;2022-09-03T15:44:20;24.20;90.70
22194;DHT22;11262;50.308;9.270;2022-09-03T15:49:26;24.20;90.80
22194;DHT22;11262;50.308;9.270;2022-09-03T15:52:36;23.90;91.10
22194;DHT22;11262;50.308;9.270;2022-09-03T16:00:54;25.70;90.40
22194;DHT22;11262;50.308;9.270;2022-09-03T16:08:58;26.90;84.10
22194;DHT22;11262;50.308;9.270;2022-09-03T16:11:51;26.40;85.60
22194;DHT22;11262;50.308;9.270;2022-09-03T16:14:28;26.10;86.50
22194;DHT22;11262;50.308;9.270;2022-09-03T16:16:58;25.70;87.30
22194;DHT22;11262;50.308;9.270;2022-09-03T16:19:27;25.50;88.40
22194;DHT22;11262;50.308;9.270;2022-09-03T16:24:37;27.60;83.00
22194;DHT22;11262;50.308;9.270;2022-09-03T16:27:13;27.20;82.60
22194;DHT22;11262;50.308;9.270;2022-09-03T16:29:40;26.50;83.90
22194;DHT22;11262;50.308;9.270;2022-09-03T16:32:16;26.20;85.50
22194;DHT22;11262;50.308;9.270;2022-09-03T16:38:21;25.50;88.80
22194;DHT22;11262;50.308;9.270;2022-09-03T16:40:52;25.20;89.30
22194;DHT22;11262;50.308;9.270;2022-09-03T16:43:48;24.70;90.30
22194;DHT22;11262;50.308;9.270;2022-09-03T17:00:14;23.20;93.20
22194;DHT22;11262;50.308;9.270;2022-09-03T17:05:57;23.20;94.10
22194;DHT22;11262;50.308;9.270;2022-09-03T17:16:45;22.70;96.80
22194;DHT22;11262;50.308;9.270;2022-09-03T17:19:37;22.50;97.30
22194;DHT22;11262;50.308;9.270;2022-09-03T17:22:16;22.50;97.90
22194;DHT22;11262;50.308;9.270;2022-09-03T17:24:50;22.40;98.40
22194;DHT22;11262;50.308;9.270;2022-09-03T17:33:36;22.10;99.80
22194;DHT22;11262;50.308;9.270;2022-09-03T17:39:04;22.00;99.90
22194;DHT22;11262;50.308;9.270;2022-09-03T17:41:52;22.00;99.90
22194;DHT22;11262;50.308;9.270;2022-09-03T17:44:40;22.00;99.90
22194;DHT22;11262;50.308;9.270;2022-09-03T17:49:57;21.70;99.90
22194;DHT22;11262;50.308;9.270;2022-09-03T17:57:47;21.60;99.90
22194;DHT22;11262;50.308;9.270;2022-09-03T18:11:52;21.50;99.90
22194;DHT22;11262;50.308;9.270;2022-09-03T18:19:53;21.30;99.90
22194;DHT22;11262;50.308;9.270;2022-09-03T18:25:52;21.20;99.90
22194;DHT22;11262;50.308;9.270;2022-09-03T18:28:46;21.20;99.90
22194;DHT22;11262;50.308;9.270;2022-09-03T18:31:31;21.20;99.90
22194;DHT22;11262;50.308;9.270;2022-09-03T18:34:20;21.20;99.90
22194;DHT22;11262;50.308;9.270;2022-09-03T18:37:05;21.20;99.90
22194;DHT22;11262;50.308;9.270;2022-09-03T18:39:49;21.20;99.90
22194;DHT22;11262;50.308;9.270;2022-09-03T18:46:00;21.10;99.90
22194;DHT22;11262;50.308;9.270;2022-09-03T18:49:02;21.10;99.90
22194;DHT22;11262;50.308;9.270;2022-09-03T18:55:10;20.90;99.90
22194;DHT22;11262;50.308;9.270;2022-09-03T19:03:54;20.70;99.90
22194;DHT22;11262;50.308;9.270;2022-09-03T19:12:52;20.60;99.90
22194;DHT22;11262;50.308;9.270;2022-09-03T19:15:53;20.50;99.90
22194;DHT22;11262;50.308;9.270;2022-09-03T19:21:51;20.20;99.90
22194;DHT22;11262;50.308;9.270;2022-09-03T19:24:37;20.20;99.90
22194;DHT22;11262;50.308;9.270;2022-09-03T19:27:44;20.20;99.90
22194;DHT22;11262;50.308;9.270;2022-09-03T19:42:31;19.60;99.90
22194;DHT22;11262;50.308;9.270;2022-09-03T19:54:53;19.50;99.90
22194;DHT22;11262;50.308;9.270;2022-09-03T19:57:40;19.50;99.90
22194;DHT22;11262;50.308;9.270;2022-09-03T20:00:24;19.50;99.90
22194;DHT22;11262;50.308;9.270;2022-09-03T20:03:10;19.50;99.90
22194;DHT22;11262;50.308;9.270;2022-09-03T20:05:56;19.50;99.90
22194;DHT22;11262;50.308;9.270;2022-09-03T20:08:41;19.50;99.90
22194;DHT22;11262;50.308;9.270;2022-09-03T20:11:27;19.50;99.90
22194;DHT22;11262;50.308;9.270;2022-09-03T20:13:57;19.50;99.90
22194;DHT22;11262;50.308;9.270;2022-09-03T20:16:43;19.50;99.90
22194;DHT22;11262;50.308;9.270;2022-09-03T20:28:03;19.40;99.90
22194;DHT22;11262;50.308;9.270;2022-09-03T20:30:49;19.40;99.90
22194;DHT22;11262;50.308;9.270;2022-09-03T20:33:24;19.30;99.90
22194;DHT22;11262;50.308;9.270;2022-09-03T20:57:36;18.90;99.90
22194;DHT22;11262;50.308;9.270;2022-09-03T21:00:10;19.00;99.90
22194;DHT22;11262;50.308;9.270;2022-09-03T21:11:48;18.80;99.90
22194;DHT22;11262;50.308;9.270;2022-09-03T21:14:37;18.70;99.90
22194;DHT22;11262;50.308;9.270;2022-09-03T21:17:18;18.60;99.90
22194;DHT22;11262;50.308;9.270;2022-09-03T21:20:02;18.60;99.90
22194;DHT22;11262;50.308;9.270;2022-09-03T21:25:45;18.50;99.90
22194;DHT22;11262;50.308;9.270;2022-09-03T21:28:24;18.50;99.90
22194;DHT22;11262;50.308;9.270;2022-09-03T21:30:59;18.40;99.90
22194;DHT22;11262;50.308;9.270;2022-09-03T21:33:28;18.40;99.90
22194;DHT22;11262;50.308;9.270;2022-09-03T21:36:14;18.30;99.90
22194;DHT22;11262;50.308;9.270;2022-09-03T21:38:45;18.30;99.90
22194;DHT22;11262;50.308;9.270;2022-09-03T21:41:20;18.20;99.90
22194;DHT22;11262;50.308;9.270;2022-09-03T21:44:16;18.10;99.90
22194;DHT22;11262;50.308;9.270;2022-09-03T21:46:46;18.00;99.90
22194;DHT22;11262;50.308;9.270;2022-09-03T21:49:19;17.90;99.90
22194;DHT22;11262;50.308;9.270;2022-09-03T21:51:56;17.80;99.90
22194;DHT22;11262;50.308;9.270;2022-09-03T21:54:27;17.80;99.90
22194;DHT22;11262;50.308;9.270;2022-09-03T22:00:12;17.60;99.90
22194;DHT22;11262;50.308;9.270;2022-09-03T22:02:42;17.50;99.90
22194;DHT22;11262;50.308;9.270;2022-09-03T22:05:08;17.50;99.90
22194;DHT22;11262;50.308;9.270;2022-09-03T22:08:05;17.50;99.90
22194;DHT22;11262;50.308;9.270;2022-09-03T22:13:42;17.40;99.90